Terminal Aerodrome Forecast
Issued by NWS North Platte, NE

Home | Current Version | Previous Version | Text Only | Print | Product List | Glossary On
Versions: 1 2 3 4 5 6 7 8 9 10 11 12 13 14 15 16 17 18 19 20 21 22
000
FTUS43 KLBF 171726
TAFVTN
TAF
KVTN 171726Z 1718/1818 13019G26KT P6SM BKN100
     FM180000 07009KT 5SM RA OVC035
     FM180200 02011KT 4SM RA OVC015
     FM180300 01013G20KT 5SM RASN OVC015
     FM180500 33014G21KT 5SM -SN OVC008
     FM181100 32016G24KT P6SM BKN015
     FM181700 32019G26KT P6SM BKN035=

USA.gov is the U.S. government's official web portal to all federal, state and local government web resources and services.